createdAt,value
2018-08-27T00:07:01.557Z,1
2018-08-27T00:17:01.532Z,1
2018-08-27T00:27:01.476Z,1
2018-08-27T00:37:01.531Z,1
2018-08-27T00:47:01.551Z,2
2018-08-27T00:57:01.532Z,2
2018-08-27T01:07:01.554Z,1
2018-08-27T01:17:01.495Z,1
2018-08-27T01:27:01.494Z,1
2018-08-27T01:37:01.507Z,1
2018-08-27T01:47:01.498Z,1
2018-08-27T01:57:01.533Z,1
2018-08-27T02:07:01.574Z,1
2018-08-27T02:17:01.863Z,2
2018-08-27T02:27:01.525Z,1
2018-08-27T02:37:01.596Z,2
2018-08-27T02:47:01.529Z,1
2018-08-27T02:57:01.560Z,1
2018-08-27T03:07:01.560Z,2
2018-08-27T03:17:01.544Z,1
2018-08-27T03:27:01.535Z,2
2018-08-27T03:37:01.639Z,1
2018-08-27T03:47:01.596Z,2
2018-08-27T03:57:01.839Z,2
2018-08-27T04:07:01.577Z,2
2018-08-27T04:17:01.595Z,2
2018-08-27T04:27:04.440Z,1
2018-08-27T04:37:01.708Z,2
2018-08-27T04:57:46.288Z,2
2018-08-27T04:58:26.813Z,2
2018-08-27T05:08:26.775Z,2
2018-08-27T05:18:26.849Z,3
2018-08-27T05:28:26.847Z,2
2018-08-27T05:38:26.813Z,3
2018-08-27T05:48:26.810Z,3
2018-08-27T05:58:26.765Z,2
2018-08-27T06:08:26.743Z,3
2018-08-27T06:18:26.820Z,2
2018-08-27T06:28:26.765Z,3
2018-08-27T06:38:26.795Z,3
2018-08-27T06:48:26.783Z,10
2018-08-27T06:58:26.797Z,4
2018-08-27T07:08:26.774Z,5
2018-08-27T07:18:26.854Z,6
2018-08-27T07:28:26.794Z,6
2018-08-27T07:38:26.835Z,7
2018-08-27T07:48:26.796Z,10
2018-08-27T07:58:26.892Z,9
2018-08-27T08:08:26.983Z,9
2018-08-27T08:18:26.837Z,10
2018-08-27T08:28:26.799Z,9
2018-08-27T08:38:26.773Z,9
2018-08-27T08:48:26.833Z,7
2018-08-27T08:58:26.775Z,8
2018-08-27T09:08:26.782Z,11
2018-08-27T09:18:26.793Z,12
2018-08-27T09:28:26.782Z,14
2018-08-27T09:38:26.798Z,17
2018-08-27T09:48:26.805Z,16
2018-08-27T09:58:26.831Z,16
2018-08-27T10:08:26.918Z,16
2018-08-27T10:18:26.796Z,16
2018-08-27T10:28:26.796Z,13
2018-08-27T10:38:26.762Z,13
2018-08-27T10:48:26.802Z,12
2018-08-27T10:58:26.938Z,10
2018-08-27T11:08:26.824Z,10
2018-08-27T11:18:26.863Z,9
2018-08-27T11:28:26.955Z,9
2018-08-27T11:38:26.859Z,7
2018-08-27T11:48:26.790Z,7
2018-08-27T11:58:26.866Z,7
2018-08-27T12:08:26.927Z,8
2018-08-27T12:18:26.866Z,7
2018-08-27T12:28:26.955Z,5
2018-08-27T12:38:26.848Z,5
2018-08-27T12:48:26.878Z,5
2018-08-27T12:58:26.859Z,4
2018-08-27T13:08:26.826Z,4
2018-08-27T13:18:26.860Z,4
2018-08-27T13:28:26.821Z,4
2018-08-27T13:38:26.835Z,3
2018-08-27T13:48:26.851Z,3
2018-08-27T13:58:26.845Z,3
2018-08-27T14:08:26.827Z,3
2018-08-27T14:18:26.858Z,3
2018-08-27T14:28:26.839Z,4
2018-08-27T14:38:27.021Z,4
2018-08-27T14:48:26.854Z,6
2018-08-27T14:58:26.893Z,4
2018-08-27T15:08:26.845Z,4
2018-08-27T15:18:26.845Z,4
2018-08-27T15:28:26.810Z,3
2018-08-27T15:38:26.912Z,4
2018-08-27T15:48:26.847Z,4
2018-08-27T15:58:26.960Z,4
2018-08-27T16:08:26.895Z,4
2018-08-27T16:18:26.989Z,4
2018-08-27T16:28:29.033Z,4
2018-08-27T16:38:26.786Z,5
2018-08-27T16:48:26.873Z,6
2018-08-27T16:58:26.987Z,6
2018-08-27T17:08:26.883Z,8
2018-08-27T17:18:26.961Z,7
2018-08-27T17:28:48.494Z,8
2018-08-27T17:38:26.843Z,7
2018-08-27T17:48:26.863Z,7
2018-08-27T17:58:27.091Z,7
2018-08-27T18:08:29.801Z,7
2018-08-27T18:18:28.637Z,7
2018-08-27T18:28:31.853Z,8
2018-08-27T18:38:30.270Z,9
2018-08-27T18:48:27.888Z,7
2018-08-27T18:58:32.943Z,7
2018-08-27T19:08:34.068Z,7
2018-08-27T19:18:33.773Z,7
2018-08-27T19:28:34.379Z,7
2018-08-27T19:38:35.093Z,7
2018-08-27T19:48:28.047Z,7
2018-08-27T19:58:27.046Z,7
2018-08-27T20:08:27.031Z,8
2018-08-27T20:18:26.946Z,6
2018-08-27T20:28:26.938Z,5
2018-08-27T20:38:26.878Z,4
2018-08-27T20:48:27.315Z,4
2018-08-27T20:58:27.159Z,3
2018-08-27T21:08:27.048Z,3
2018-08-27T21:18:27.000Z,4
2018-08-27T21:28:26.868Z,3
2018-08-27T21:38:27.028Z,3
2018-08-27T21:48:27.081Z,3
2018-08-27T21:58:26.948Z,3
2018-08-27T22:14:54.141Z,4
2018-08-27T22:18:26.878Z,5
2018-08-27T22:28:26.955Z,3
2018-08-27T22:38:26.955Z,3
2018-08-27T22:48:27.927Z,3
2018-08-27T22:58:27.023Z,4
2018-08-27T23:08:26.910Z,4
2018-08-27T23:18:26.959Z,5
2018-08-27T23:28:27.019Z,4
2018-08-27T23:38:27.003Z,4
2018-08-27T23:48:26.968Z,4
2018-08-27T23:58:26.983Z,4
